createdAt,value
2018-06-12T00:01:29.403Z,87.20
2018-06-12T00:03:57.814Z,87.50
2018-06-12T00:06:26.249Z,87.60
2018-06-12T00:08:54.559Z,87.50
2018-06-12T00:11:22.895Z,87.60
2018-06-12T00:13:51.224Z,87.90
2018-06-12T00:16:19.597Z,87.70
2018-06-12T00:18:47.884Z,87.60
2018-06-12T00:21:16.187Z,87.50
2018-06-12T00:23:44.465Z,87.50
2018-06-12T00:26:12.780Z,87.70
2018-06-12T00:28:41.083Z,87.50
2018-06-12T00:31:09.441Z,87.70
2018-06-12T00:33:37.780Z,87.50
2018-06-12T00:36:06.092Z,87.40
2018-06-12T00:38:34.396Z,87.30
2018-06-12T00:41:02.747Z,87.50
2018-06-12T00:43:31.138Z,87.00
2018-06-12T00:45:59.434Z,86.70
2018-06-12T00:48:27.834Z,86.70
2018-06-12T00:50:56.213Z,86.10
2018-06-12T00:53:24.739Z,86.00
2018-06-12T00:55:53.122Z,85.80
2018-06-12T00:58:21.435Z,85.80
2018-06-12T01:00:49.760Z,86.00
2018-06-12T01:03:18.052Z,85.80
2018-06-12T01:05:46.351Z,85.80
2018-06-12T01:08:14.680Z,85.60
2018-06-12T01:10:42.970Z,85.50
2018-06-12T01:13:11.292Z,85.60
2018-06-12T01:15:39.632Z,85.50
2018-06-12T01:18:07.891Z,85.10
2018-06-12T01:20:36.200Z,85.30
2018-06-12T01:23:04.773Z,85.90
2018-06-12T01:25:33.133Z,85.50
2018-06-12T01:28:01.631Z,85.60
2018-06-12T01:30:29.967Z,85.90
2018-06-12T01:32:58.284Z,85.90
2018-06-12T01:35:26.676Z,85.70
2018-06-12T01:37:55.009Z,85.90
2018-06-12T01:40:23.351Z,85.90
2018-06-12T01:42:51.655Z,85.50
2018-06-12T01:45:20.000Z,85.80
2018-06-12T01:47:48.296Z,85.90
2018-06-12T01:50:16.610Z,86.10
2018-06-12T01:52:45.481Z,86.20
2018-06-12T01:55:13.882Z,86.30
2018-06-12T01:57:42.219Z,86.20
2018-06-12T02:00:10.548Z,86.40
2018-06-12T02:02:38.855Z,86.20
2018-06-12T02:05:07.375Z,86.60
2018-06-12T02:07:35.709Z,87.10
2018-06-12T02:10:04.042Z,86.20
2018-06-12T02:12:32.346Z,86.20
2018-06-12T02:15:00.665Z,86.20
2018-06-12T02:17:29.100Z,86.90
2018-06-12T02:19:57.396Z,86.30
2018-06-12T02:22:25.959Z,86.20
2018-06-12T02:24:54.260Z,86.10
2018-06-12T02:27:22.643Z,86.10
2018-06-12T02:29:51.012Z,86.50
2018-06-12T02:34:47.444Z,86.40
2018-06-12T02:37:15.846Z,86.20
2018-06-12T02:39:44.171Z,86.60
2018-06-12T02:42:12.552Z,86.50
2018-06-12T02:44:40.877Z,86.20
2018-06-12T02:47:09.165Z,86.60
2018-06-12T02:49:37.496Z,86.60
2018-06-12T02:52:05.807Z,86.80
2018-06-12T02:54:34.121Z,87.50
2018-06-12T02:57:02.512Z,86.80
2018-06-12T02:59:30.852Z,86.90
2018-06-12T03:02:00.422Z,87.00
2018-06-12T03:04:28.879Z,86.80
2018-06-12T03:06:57.222Z,87.40
2018-06-12T03:09:25.577Z,87.00
2018-06-12T03:11:53.932Z,86.70
2018-06-12T03:14:22.330Z,87.00
2018-06-12T03:16:50.696Z,87.10
2018-06-12T03:19:19.365Z,86.80
2018-06-12T03:21:48.356Z,86.70
2018-06-12T03:24:16.788Z,86.50
2018-06-12T03:26:45.243Z,86.60
2018-06-12T03:29:13.537Z,86.40
2018-06-12T03:31:41.900Z,86.40
2018-06-12T03:34:10.267Z,86.50
2018-06-12T03:36:38.535Z,86.50
2018-06-12T03:39:07.308Z,87.10
2018-06-12T03:41:35.685Z,86.90
2018-06-12T03:44:04.022Z,86.80
2018-06-12T03:46:32.356Z,86.50
2018-06-12T03:49:00.667Z,86.60
2018-06-12T03:51:28.953Z,87.00
2018-06-12T03:53:57.348Z,86.90
2018-06-12T03:56:25.848Z,86.90
2018-06-12T03:58:54.241Z,86.50
2018-06-12T04:01:22.615Z,86.30
2018-06-12T04:03:50.890Z,86.50
2018-06-12T04:06:19.170Z,86.20
2018-06-12T04:08:47.476Z,86.40
2018-06-12T04:11:15.807Z,85.90
2018-06-12T04:13:44.277Z,86.00
2018-06-12T04:16:12.587Z,85.90
2018-06-12T04:18:40.892Z,85.40
2018-06-12T04:21:09.186Z,84.80
2018-06-12T04:23:37.511Z,84.90
2018-06-12T04:26:05.825Z,84.80
2018-06-12T04:28:34.124Z,84.50
2018-06-12T04:31:02.500Z,84.50
2018-06-12T04:33:30.858Z,84.50
2018-06-12T04:35:59.175Z,84.60
2018-06-12T04:38:27.449Z,84.90
2018-06-12T04:40:55.801Z,84.80
2018-06-12T04:43:24.287Z,84.10
2018-06-12T04:45:52.659Z,84.00
2018-06-12T04:48:20.968Z,83.80
2018-06-12T04:50:49.283Z,83.30
2018-06-12T04:53:17.702Z,83.20
2018-06-12T04:55:45.993Z,83.40
2018-06-12T04:58:14.301Z,83.30
2018-06-12T05:00:42.641Z,83.00
2018-06-12T05:03:10.975Z,82.20
2018-06-12T05:05:39.320Z,82.70
2018-06-12T05:08:07.631Z,82.80
2018-06-12T05:10:35.941Z,82.80
2018-06-12T05:13:04.237Z,82.40
2018-06-12T05:15:32.508Z,81.80
2018-06-12T05:18:00.821Z,81.40
2018-06-12T05:20:29.152Z,81.30
2018-06-12T05:22:57.473Z,81.50
2018-06-12T05:25:25.854Z,81.20
2018-06-12T05:27:54.155Z,81.10
2018-06-12T05:30:22.452Z,80.90
2018-06-12T05:32:50.840Z,80.50
2018-06-12T05:35:19.270Z,80.40
2018-06-12T05:37:47.566Z,80.50
2018-06-12T05:40:15.925Z,80.90
2018-06-12T05:42:44.284Z,80.30
2018-06-12T05:45:12.686Z,81.10
2018-06-12T05:47:41.065Z,80.50
2018-06-12T05:50:09.375Z,80.30
2018-06-12T05:52:37.883Z,80.40
2018-06-12T05:55:06.271Z,79.60
2018-06-12T05:57:34.687Z,79.30
2018-06-12T06:00:02.999Z,78.80
2018-06-12T06:02:31.312Z,79.30
2018-06-12T06:04:59.620Z,79.70
2018-06-12T06:07:27.978Z,79.90
2018-06-12T06:09:56.304Z,80.20
2018-06-12T06:12:24.611Z,79.60
2018-06-12T06:14:53.013Z,79.20
2018-06-12T06:17:21.475Z,79.30
2018-06-12T06:19:56.525Z,79.50
2018-06-12T06:22:24.903Z,78.50
2018-06-12T06:24:53.204Z,78.80
2018-06-12T06:27:21.622Z,79.20
2018-06-12T06:29:50.028Z,78.70
2018-06-12T06:32:18.734Z,78.30
2018-06-12T06:34:47.058Z,78.00
2018-06-12T06:37:15.352Z,77.40
2018-06-12T06:39:43.756Z,78.40
2018-06-12T06:42:12.065Z,78.30
2018-06-12T06:44:40.373Z,77.60
2018-06-12T06:47:08.681Z,78.10
2018-06-12T06:49:36.955Z,77.90
2018-06-12T06:52:05.498Z,77.10
2018-06-12T06:54:33.797Z,76.80
2018-06-12T06:57:02.117Z,76.50
2018-06-12T06:59:30.443Z,77.10
2018-06-12T07:01:58.736Z,75.90
2018-06-12T07:04:27.091Z,76.50
2018-06-12T07:06:55.436Z,76.10
2018-06-12T07:09:23.763Z,75.80
2018-06-12T07:11:52.079Z,75.00
2018-06-12T07:14:20.347Z,74.40
2018-06-12T07:16:48.613Z,73.80
2018-06-12T07:19:16.886Z,72.80
2018-06-12T07:21:45.164Z,74.20
2018-06-12T07:24:13.867Z,74.10
2018-06-12T07:26:42.264Z,73.60
2018-06-12T07:29:10.566Z,73.40
2018-06-12T07:31:38.837Z,73.30
2018-06-12T07:34:07.143Z,73.20
2018-06-12T07:36:35.440Z,73.30
2018-06-12T07:39:05.967Z,73.40
2018-06-12T07:41:34.586Z,73.30
2018-06-12T07:44:02.990Z,72.80
2018-06-12T07:46:31.437Z,72.60
2018-06-12T07:49:00.159Z,73.80
2018-06-12T07:51:28.443Z,73.40
2018-06-12T07:53:56.763Z,72.70
2018-06-12T07:56:25.054Z,72.80
2018-06-12T07:58:53.386Z,72.20
2018-06-12T08:01:21.694Z,71.50
2018-06-12T08:03:50.034Z,71.60
2018-06-12T08:06:18.285Z,71.20
2018-06-12T08:08:46.683Z,70.00
2018-06-12T08:11:15.015Z,69.20
2018-06-12T08:13:43.371Z,69.10
2018-06-12T08:16:11.760Z,68.90
2018-06-12T08:18:40.119Z,69.10
2018-06-12T08:21:08.619Z,68.80
2018-06-12T08:23:37.061Z,68.80
2018-06-12T08:26:05.535Z,69.50
2018-06-12T08:28:33.859Z,68.20
2018-06-12T08:31:02.189Z,68.60
2018-06-12T08:33:30.546Z,68.50
2018-06-12T08:35:58.860Z,68.80
2018-06-12T08:38:27.178Z,69.20
2018-06-12T08:40:55.518Z,68.70
2018-06-12T08:43:23.818Z,68.00
2018-06-12T08:45:52.303Z,67.90
2018-06-12T08:48:20.863Z,67.60
2018-06-12T08:50:49.164Z,68.40
2018-06-12T08:55:45.666Z,68.10
2018-06-12T08:58:14.054Z,68.40
2018-06-12T09:00:42.337Z,68.70
2018-06-12T09:03:10.632Z,68.40
2018-06-12T09:05:38.905Z,67.60
2018-06-12T09:08:07.199Z,67.30
2018-06-12T09:10:35.491Z,67.00
2018-06-12T09:13:03.786Z,66.10
2018-06-12T09:15:32.048Z,65.20
2018-06-12T09:18:00.385Z,66.00
2018-06-12T09:20:28.672Z,65.60
2018-06-12T09:22:57.014Z,64.80
2018-06-12T09:25:25.336Z,66.00
2018-06-12T09:27:53.674Z,65.90
2018-06-12T09:30:22.005Z,66.00
2018-06-12T09:32:50.520Z,65.50
2018-06-12T09:35:18.859Z,65.50
2018-06-12T09:37:47.242Z,65.40
2018-06-12T09:40:15.534Z,64.90
2018-06-12T09:42:43.825Z,65.20
2018-06-12T09:45:12.151Z,64.80
2018-06-12T09:47:40.444Z,64.80
2018-06-12T09:50:08.771Z,64.30
2018-06-12T09:52:37.079Z,64.90
2018-06-12T09:55:05.795Z,65.10
2018-06-12T09:57:34.072Z,66.80
2018-06-12T10:00:02.383Z,65.10
2018-06-12T10:02:30.723Z,65.40
2018-06-12T10:04:59.086Z,65.00
2018-06-12T10:07:27.528Z,64.10
2018-06-12T10:09:56.021Z,63.50
2018-06-12T10:12:24.359Z,63.90
2018-06-12T10:14:52.700Z,62.70
2018-06-12T10:19:49.160Z,62.40
2018-06-12T10:22:17.466Z,62.90
2018-06-12T10:24:45.753Z,62.70
2018-06-12T10:27:14.061Z,63.40
2018-06-12T10:29:42.446Z,65.00
2018-06-12T10:32:10.764Z,64.50
2018-06-12T10:34:39.105Z,64.00
2018-06-12T10:37:07.426Z,64.00
2018-06-12T10:39:35.680Z,64.30
2018-06-12T10:42:04.019Z,64.50
2018-06-12T10:44:32.352Z,63.70
2018-06-12T10:47:00.700Z,63.30
2018-06-12T10:49:29.056Z,63.70
2018-06-12T10:51:57.333Z,63.00
2018-06-12T10:54:25.641Z,65.60
2018-06-12T10:56:53.968Z,63.90
2018-06-12T10:59:22.261Z,64.80
2018-06-12T11:01:50.537Z,63.20
2018-06-12T11:04:18.833Z,64.40
2018-06-12T11:06:47.183Z,65.30
2018-06-12T11:09:15.471Z,65.30
2018-06-12T11:11:43.832Z,64.50
2018-06-12T11:14:12.164Z,63.90
2018-06-12T11:16:40.544Z,64.10
2018-06-12T11:19:08.949Z,64.30
2018-06-12T11:21:37.311Z,64.60
2018-06-12T11:24:05.837Z,64.60
2018-06-12T11:26:34.725Z,64.40
2018-06-12T11:29:03.058Z,64.10
2018-06-12T11:31:31.339Z,63.80
2018-06-12T11:33:59.992Z,65.20
2018-06-12T11:36:28.320Z,65.10
2018-06-12T11:38:56.635Z,64.60
2018-06-12T11:41:24.941Z,65.30
2018-06-12T11:43:53.353Z,65.80
2018-06-12T11:46:21.663Z,65.90
2018-06-12T11:48:49.968Z,65.60
2018-06-12T11:51:18.329Z,66.20
2018-06-12T11:53:49.216Z,66.40
2018-06-12T11:56:17.555Z,66.60
2018-06-12T11:58:46.812Z,66.30
2018-06-12T12:01:15.325Z,66.30
2018-06-12T12:03:43.625Z,65.90
2018-06-12T12:06:12.012Z,65.50
2018-06-12T12:08:40.451Z,64.50
2018-06-12T12:11:08.868Z,64.80
2018-06-12T12:13:37.283Z,64.10
2018-06-12T12:16:05.723Z,65.10
2018-06-12T12:18:34.129Z,65.30
2018-06-12T12:21:02.480Z,65.90
2018-06-12T12:23:30.855Z,66.20
2018-06-12T12:25:59.277Z,66.60
2018-06-12T12:28:27.596Z,66.60
2018-06-12T12:30:55.876Z,66.20
2018-06-12T12:33:24.194Z,65.10
2018-06-12T12:35:52.642Z,64.80
2018-06-12T12:38:21.075Z,64.50
2018-06-12T12:40:49.471Z,64.10
2018-06-12T12:43:17.805Z,63.90
2018-06-12T12:45:46.205Z,64.40
2018-06-12T12:48:14.487Z,64.60
2018-06-12T12:50:42.778Z,65.10
2018-06-12T12:53:11.105Z,65.30
2018-06-12T12:55:39.385Z,65.00
2018-06-12T12:58:07.706Z,64.50
2018-06-12T13:00:36.123Z,64.80
2018-06-12T13:03:04.444Z,63.50
2018-06-12T13:05:32.764Z,61.90
2018-06-12T13:08:01.227Z,62.60
2018-06-12T13:10:29.490Z,63.30
2018-06-12T13:12:57.865Z,64.90
2018-06-12T13:15:26.196Z,64.60
2018-06-12T13:17:54.560Z,64.10
2018-06-12T13:20:22.897Z,65.30
2018-06-12T13:22:51.195Z,65.50
2018-06-12T13:25:19.470Z,66.30
2018-06-12T13:27:47.798Z,66.50
2018-06-12T13:30:16.169Z,66.90
2018-06-12T13:32:44.464Z,67.10
2018-06-12T13:35:12.819Z,66.90
2018-06-12T13:37:41.112Z,66.40
2018-06-12T13:40:09.728Z,67.20
2018-06-12T13:42:38.030Z,67.40
2018-06-12T13:45:06.330Z,68.30
2018-06-12T13:47:34.669Z,67.60
2018-06-12T13:50:03.009Z,67.90
2018-06-12T13:52:31.360Z,68.50
2018-06-12T13:54:59.723Z,68.10
2018-06-12T13:57:28.033Z,68.30
2018-06-12T13:59:56.314Z,68.60
2018-06-12T14:02:24.657Z,68.90
2018-06-12T14:04:52.916Z,69.20
2018-06-12T14:09:49.376Z,68.80
2018-06-12T14:12:17.744Z,69.20
2018-06-12T14:14:46.075Z,69.10
2018-06-12T14:17:14.439Z,69.30
2018-06-12T14:19:42.831Z,69.40
2018-06-12T14:22:11.185Z,70.10
2018-06-12T14:24:39.573Z,69.10
2018-06-12T14:27:08.046Z,69.20
2018-06-12T14:29:36.541Z,69.20
2018-06-12T14:32:04.895Z,69.10
2018-06-12T14:34:33.206Z,69.00
2018-06-12T14:37:01.524Z,68.70
2018-06-12T14:39:29.814Z,68.40
2018-06-12T14:41:58.190Z,68.40
2018-06-12T14:44:26.496Z,67.40
2018-06-12T14:46:54.818Z,66.20
2018-06-12T14:49:23.108Z,66.40
2018-06-12T14:51:51.389Z,66.20
2018-06-12T14:54:19.693Z,67.00
2018-06-12T14:56:48.031Z,67.10
2018-06-12T14:59:16.351Z,67.20
2018-06-12T15:01:44.668Z,67.50
2018-06-12T15:04:13.123Z,68.30
2018-06-12T15:06:41.572Z,68.00
2018-06-12T15:09:09.948Z,68.00
2018-06-12T15:11:38.302Z,67.50
2018-06-12T15:14:06.650Z,68.60
2018-06-12T15:16:34.966Z,69.10
2018-06-12T15:19:03.291Z,69.00
2018-06-12T15:21:31.606Z,68.30
2018-06-12T15:23:59.916Z,68.90
2018-06-12T15:26:28.190Z,69.20
2018-06-12T15:28:56.502Z,69.40
2018-06-12T15:31:24.864Z,69.80
2018-06-12T15:33:53.173Z,69.70
2018-06-12T15:36:21.532Z,69.40
2018-06-12T15:38:50.076Z,68.80
2018-06-12T15:41:18.446Z,68.10
2018-06-12T15:43:46.775Z,67.20
2018-06-12T15:46:15.051Z,65.70
2018-06-12T15:48:43.480Z,65.30
2018-06-12T15:51:11.923Z,65.50
2018-06-12T15:53:40.380Z,66.10
2018-06-12T15:56:08.928Z,66.50
2018-06-12T16:01:05.369Z,65.10
2018-06-12T16:03:33.754Z,64.80
2018-06-12T16:06:02.198Z,64.60
2018-06-12T16:08:31.526Z,65.80
2018-06-12T16:10:59.848Z,66.50
2018-06-12T16:13:28.369Z,67.20
2018-06-12T16:15:56.757Z,67.60
2018-06-12T16:18:25.149Z,66.90
2018-06-12T16:20:54.681Z,66.90
2018-06-12T16:23:23.020Z,67.30
2018-06-12T16:25:51.457Z,68.10
2018-06-12T16:28:19.758Z,67.40
2018-06-12T16:30:48.081Z,66.50
2018-06-12T16:33:16.493Z,66.80
2018-06-12T16:35:44.834Z,66.30
2018-06-12T16:38:13.130Z,66.30
2018-06-12T16:40:41.445Z,65.60
2018-06-12T16:43:09.762Z,65.80
2018-06-12T16:45:38.093Z,66.30
2018-06-12T16:48:06.701Z,66.80
2018-06-12T16:50:35.169Z,66.70
2018-06-12T16:53:03.571Z,68.20
2018-06-12T16:55:31.904Z,69.50
2018-06-12T16:58:00.327Z,69.80
2018-06-12T17:00:28.662Z,69.90
2018-06-12T17:02:57.032Z,70.00
2018-06-12T17:05:25.469Z,70.30
2018-06-12T17:07:53.934Z,70.60
2018-06-12T17:10:22.279Z,70.80
2018-06-12T17:12:50.612Z,71.30
2018-06-12T17:15:18.947Z,71.50
2018-06-12T17:17:47.252Z,71.70
2018-06-12T17:22:43.800Z,73.20
2018-06-12T17:25:12.247Z,72.80
2018-06-12T17:27:40.607Z,73.00
2018-06-12T17:30:09.191Z,73.20
2018-06-12T17:32:37.519Z,73.00
2018-06-12T17:35:06.066Z,73.30
2018-06-12T17:37:34.477Z,73.40
2018-06-12T17:40:02.832Z,73.40
2018-06-12T17:42:31.141Z,74.00
2018-06-12T17:44:59.456Z,74.30
2018-06-12T17:47:27.782Z,74.20
2018-06-12T17:49:56.136Z,74.30
2018-06-12T17:52:24.631Z,75.10
2018-06-12T17:54:53.014Z,74.50
2018-06-12T17:57:21.371Z,75.00
2018-06-12T17:59:49.758Z,75.40
2018-06-12T18:02:18.035Z,75.60
2018-06-12T18:04:46.682Z,75.30
2018-06-12T18:07:15.086Z,75.50
2018-06-12T18:09:43.440Z,75.50
2018-06-12T18:12:11.947Z,75.10
2018-06-12T18:14:40.495Z,75.00
2018-06-12T18:17:08.816Z,75.40
2018-06-12T18:19:37.125Z,75.40
2018-06-12T18:22:05.461Z,75.10
2018-06-12T18:24:33.919Z,75.70
2018-06-12T18:27:02.212Z,75.10
2018-06-12T18:29:30.496Z,75.30
2018-06-12T18:31:58.931Z,75.50
2018-06-12T18:34:27.378Z,75.80
2018-06-12T18:36:55.681Z,75.30
2018-06-12T18:39:24.001Z,75.50
2018-06-12T18:41:52.329Z,75.90
2018-06-12T18:44:20.760Z,76.10
2018-06-12T18:46:49.148Z,76.40
2018-06-12T18:49:17.629Z,76.50
2018-06-12T18:51:46.074Z,76.70
2018-06-12T18:54:14.448Z,77.00
2018-06-12T18:56:42.959Z,77.00
2018-06-12T18:59:11.239Z,77.00
2018-06-12T19:01:39.568Z,77.10
2018-06-12T19:04:07.911Z,77.10
2018-06-12T19:06:36.379Z,77.70
2018-06-12T19:09:06.397Z,77.50
2018-06-12T19:11:35.344Z,77.60
2018-06-12T19:14:03.608Z,76.50
2018-06-12T19:16:31.908Z,76.30
2018-06-12T19:19:00.227Z,75.50
2018-06-12T19:21:28.541Z,75.70
2018-06-12T19:26:25.527Z,75.10
2018-06-12T19:28:53.865Z,74.80
2018-06-12T19:31:22.180Z,75.00
2018-06-12T19:33:50.606Z,75.60
2018-06-12T19:36:18.936Z,75.40
2018-06-12T19:38:47.248Z,75.70
2018-06-12T19:41:15.547Z,75.60
2018-06-12T19:43:43.875Z,75.90
2018-06-12T19:46:12.193Z,75.80
2018-06-12T19:48:40.500Z,76.00
2018-06-12T19:51:08.860Z,75.90
2018-06-12T19:53:37.179Z,75.60
2018-06-12T19:56:05.620Z,74.90
2018-06-12T20:01:02.136Z,74.80
2018-06-12T20:03:30.574Z,74.50
2018-06-12T20:05:59.656Z,75.70
2018-06-12T20:08:28.139Z,74.90
2018-06-12T20:10:56.470Z,74.90
2018-06-12T20:13:24.832Z,74.70
2018-06-12T20:15:53.212Z,75.50
2018-06-12T20:18:21.529Z,74.20
2018-06-12T20:20:49.853Z,74.50
2018-06-12T20:23:18.264Z,74.30
2018-06-12T20:25:46.603Z,74.60
2018-06-12T20:28:14.945Z,74.80
2018-06-12T20:30:43.251Z,74.70
2018-06-12T20:33:11.640Z,75.20
2018-06-12T20:35:39.992Z,75.20
2018-06-12T20:38:08.360Z,75.40
2018-06-12T20:40:36.787Z,75.90
2018-06-12T20:43:05.485Z,76.30
2018-06-12T20:45:33.857Z,76.30
2018-06-12T20:48:02.303Z,76.40
2018-06-12T20:50:31.039Z,76.60
2018-06-12T20:52:59.407Z,76.70
2018-06-12T20:55:27.767Z,76.80
2018-06-12T20:57:56.152Z,76.80
2018-06-12T21:00:26.476Z,76.90
2018-06-12T21:02:54.896Z,76.90
2018-06-12T21:05:23.232Z,77.00
2018-06-12T21:07:51.609Z,77.10
2018-06-12T21:10:19.886Z,77.00
2018-06-12T21:12:48.184Z,77.20
2018-06-12T21:15:16.699Z,77.40
2018-06-12T21:17:45.024Z,77.50
2018-06-12T21:20:14.598Z,77.80
2018-06-12T21:25:11.056Z,78.10
2018-06-12T21:27:39.768Z,78.60
2018-06-12T21:30:08.202Z,78.60
2018-06-12T21:32:36.574Z,79.00
2018-06-12T21:37:33.025Z,79.40
2018-06-12T21:40:01.324Z,79.50
2018-06-12T21:42:29.624Z,79.60
2018-06-12T21:44:58.075Z,79.90
2018-06-12T21:47:26.384Z,80.40
2018-06-12T21:49:54.704Z,80.10
2018-06-12T21:52:23.015Z,80.70
2018-06-12T21:54:51.353Z,80.40
2018-06-12T21:57:20.188Z,80.40
2018-06-12T21:59:48.630Z,80.60
2018-06-12T22:02:17.076Z,80.50
2018-06-12T22:04:45.390Z,80.60
2018-06-12T22:07:14.609Z,80.70
2018-06-12T22:09:42.974Z,80.00
2018-06-12T22:12:11.320Z,79.80
2018-06-12T22:14:39.643Z,79.60
2018-06-12T22:17:07.992Z,79.60
2018-06-12T22:19:36.293Z,79.30
2018-06-12T22:22:04.647Z,80.30
2018-06-12T22:24:33.228Z,79.90
2018-06-12T22:27:01.572Z,79.70
2018-06-12T22:29:29.888Z,79.40
2018-06-12T22:31:58.281Z,79.30
2018-06-12T22:34:26.680Z,79.70
2018-06-12T22:36:55.801Z,79.20
2018-06-12T22:39:24.327Z,79.00
2018-06-12T22:49:16.870Z,79.40
2018-06-12T22:51:45.203Z,79.30
2018-06-12T22:54:13.498Z,79.40
2018-06-12T22:56:42.027Z,79.60
2018-06-12T22:59:10.318Z,79.80
2018-06-12T23:01:38.626Z,80.20
2018-06-12T23:04:06.980Z,80.20
2018-06-12T23:06:35.282Z,80.20
2018-06-12T23:09:03.763Z,80.80
2018-06-12T23:11:32.429Z,80.00
2018-06-12T23:14:00.920Z,80.40
2018-06-12T23:16:29.340Z,80.00
2018-06-12T23:18:57.671Z,79.80
2018-06-12T23:21:39.051Z,79.70
2018-06-12T23:24:07.380Z,80.00
2018-06-12T23:26:35.824Z,80.10
2018-06-12T23:29:04.323Z,80.40
2018-06-12T23:31:32.773Z,80.50
2018-06-12T23:34:01.205Z,80.60
2018-06-12T23:36:29.551Z,80.50
2018-06-12T23:38:57.833Z,80.70
2018-06-12T23:41:26.207Z,81.00
2018-06-12T23:43:54.516Z,80.80
2018-06-12T23:46:22.860Z,81.10
2018-06-12T23:48:51.243Z,80.90
2018-06-12T23:51:19.543Z,81.20
2018-06-12T23:53:47.879Z,81.40
2018-06-12T23:56:16.214Z,81.60
2018-06-12T23:58:44.551Z,81.60
